Time,TemperatureF,DewpointF,PressureIn,WindDirection,WindDirectionDegrees,WindSpeedMPH,WindSpeedGustMPH,Humidity,HourlyPrecipIn,Conditions,Clouds,dailyrainin,SoftwareType,DateUTC
2013-11-27 00:14:00,41.2,33.0,30.16,North,5,10.0,15.0,73,0.00,,,0.00,weatherlink.com 1.10,2013-11-27 08:14:00,
2013-11-27 00:29:00,40.7,33.0,30.15,NE,41,6.0,13.0,74,0.00,,,0.00,weatherlink.com 1.10,2013-11-27 08:29:00,
2013-11-27 00:44:00,40.7,32.0,30.15,NE,39,8.0,15.0,72,0.00,,,0.00,weatherlink.com 1.10,2013-11-27 08:44:00,
2013-11-27 00:59:00,40.6,32.0,30.15,ENE,69,5.0,14.0,71,0.00,,,0.00,weatherlink.com 1.10,2013-11-27 08:59:00,
2013-11-27 01:14:00,40.6,32.0,30.14,NE,51,8.0,13.0,70,0.00,,,0.00,weatherlink.com 1.10,2013-11-27 09:14:00,
2013-11-27 01:29:00,40.6,32.0,30.14,ENE,66,8.0,13.0,71,0.00,,,0.00,weatherlink.com 1.10,2013-11-27 09:29:00,
2013-11-27 01:44:00,40.7,31.0,30.14,ENE,71,8.0,12.0,69,0.00,,,0.00,weatherlink.com 1.10,2013-11-27 09:44:00,
2013-11-27 01:59:00,40.7,31.0,30.13,ENE,72,10.0,16.0,68,0.00,,,0.00,weatherlink.com 1.10,2013-11-27 09:59:00,
2013-11-27 02:14:00,40.7,30.0,30.13,ENE,59,9.0,12.0,67,0.00,,,0.00,weatherlink.com 1.10,2013-11-27 10:14:00,
2013-11-27 02:29:00,40.8,30.0,30.12,East,96,13.0,15.0,66,0.00,,,0.00,weatherlink.com 1.10,2013-11-27 10:29:00,
2013-11-27 02:45:00,40.8,31.0,30.12,ENE,66,8.0,18.0,68,0.00,,,0.00,weatherlink.com 1.10,2013-11-27 10:45:00,
2013-11-27 03:00:00,41.2,31.0,30.11,ENE,77,10.0,14.0,66,0.00,,,0.00,weatherlink.com 1.10,2013-11-27 11:00:00,
2013-11-27 03:15:00,41.3,31.0,30.11,NE,50,5.0,14.0,66,0.00,,,0.00,weatherlink.com 1.10,2013-11-27 11:15:00,
2013-11-27 03:30:00,41.3,30.0,30.11,NE,38,7.0,17.0,64,0.00,,,0.00,weatherlink.com 1.10,2013-11-27 11:30:00,
2013-11-27 03:45:00,41.1,31.0,30.11,East,92,8.0,12.0,67,0.00,,,0.00,weatherlink.com 1.10,2013-11-27 11:45:00,
2013-11-27 04:00:00,41.0,30.0,30.10,ENE,68,9.0,15.0,66,0.00,,,0.00,weatherlink.com 1.10,2013-11-27 12:00:00,
2013-11-27 04:15:00,41.1,31.0,30.10,East,80,10.0,14.0,68,0.00,,,0.00,weatherlink.com 1.10,2013-11-27 12:15:00,
2013-11-27 04:30:00,40.9,31.0,30.10,ENE,66,8.0,15.0,68,0.00,,,0.00,weatherlink.com 1.10,2013-11-27 12:30:00,
2013-11-27 04:45:00,40.8,32.0,30.10,NE,50,7.0,13.0,70,0.00,,,0.00,weatherlink.com 1.10,2013-11-27 12:45:00,
2013-11-27 05:00:00,40.5,32.0,30.09,ENE,69,4.0,17.0,72,0.00,,,0.00,weatherlink.com 1.10,2013-11-27 13:00:00,
2013-11-27 05:15:00,40.0,32.0,30.09,NE,55,6.0,13.0,72,0.00,,,0.00,weatherlink.com 1.10,2013-11-27 13:15:00,
2013-11-27 05:30:00,39.9,31.0,30.09,ENE,63,8.0,15.0,71,0.00,,,0.00,weatherlink.com 1.10,2013-11-27 13:30:00,
2013-11-27 05:45:00,40.0,31.0,30.09,NE,50,6.0,12.0,70,0.00,,,0.00,weatherlink.com 1.10,2013-11-27 13:45:00,
2013-11-27 06:00:00,39.9,30.0,30.09,NE,51,5.0,13.0,69,0.00,,,0.00,weatherlink.com 1.10,2013-11-27 14:00:00,
2013-11-27 06:15:00,39.7,31.0,30.09,NE,51,9.0,16.0,71,0.00,,,0.00,weatherlink.com 1.10,2013-11-27 14:15:00,
2013-11-27 06:30:00,39.5,31.0,30.09,NE,42,10.0,13.0,71,0.00,,,0.00,weatherlink.com 1.10,2013-11-27 14:30:00,
2013-11-27 06:45:00,39.7,31.0,30.09,ENE,63,8.0,15.0,70,0.00,,,0.00,weatherlink.com 1.10,2013-11-27 14:45:00,
2013-11-27 07:00:00,40.3,30.0,30.10,NE,37,11.0,15.0,68,0.00,,,0.00,weatherlink.com 1.10,2013-11-27 15:00:00,
2013-11-27 07:15:00,41.5,30.0,30.09,East,79,8.0,16.0,65,0.00,,,0.00,weatherlink.com 1.10,2013-11-27 15:15:00,
2013-11-27 07:30:00,42.3,30.0,30.09,NE,37,5.0,17.0,63,0.00,,,0.00,weatherlink.com 1.10,2013-11-27 15:30:00,
2013-11-27 07:45:00,43.6,30.0,30.10,NE,53,17.0,19.0,58,0.00,,,0.00,weatherlink.com 1.10,2013-11-27 15:45:00,
2013-11-27 08:00:00,42.8,30.0,30.09,NE,44,5.0,17.0,61,0.00,,,0.00,weatherlink.com 1.10,2013-11-27 16:00:00,
2013-11-27 08:15:00,42.7,29.0,30.09,NNE,32,10.0,18.0,58,0.00,,,0.00,weatherlink.com 1.10,2013-11-27 16:15:00,
2013-11-27 08:30:00,43.6,30.0,30.10,NE,47,5.0,16.0,58,0.00,,,0.00,weatherlink.com 1.10,2013-11-27 16:30:00,
2013-11-27 08:45:00,42.7,28.0,30.09,ENE,66,8.0,16.0,57,0.00,,,0.00,weatherlink.com 1.10,2013-11-27 16:45:00,
2013-11-27 09:00:00,42.8,28.0,30.08,NE,40,12.0,17.0,57,0.00,,,0.00,weatherlink.com 1.10,2013-11-27 17:00:00,
2013-11-27 09:15:00,43.1,29.0,30.09,NE,42,12.0,16.0,57,0.00,,,0.00,weatherlink.com 1.10,2013-11-27 17:15:00,
2013-11-27 09:30:00,43.3,29.0,30.09,ENE,60,9.0,16.0,58,0.00,,,0.00,weatherlink.com 1.10,2013-11-27 17:30:00,
2013-11-27 09:45:00,44.0,29.0,30.09,East,96,10.0,16.0,56,0.00,,,0.00,weatherlink.com 1.10,2013-11-27 17:45:00,
2013-11-27 10:00:00,44.5,29.0,30.09,NE,44,9.0,15.0,54,0.00,,,0.00,weatherlink.com 1.10,2013-11-27 18:00:00,
2013-11-27 10:15:00,44.9,28.0,30.09,ENE,57,14.0,16.0,51,0.00,,,0.00,weatherlink.com 1.10,2013-11-27 18:15:00,
2013-11-27 10:30:00,47.7,30.0,30.08,NE,47,7.0,16.0,51,0.00,,,0.00,weatherlink.com 1.10,2013-11-27 18:30:00,
2013-11-27 10:45:00,47.9,28.0,30.08,ENE,66,12.0,15.0,47,0.00,,,0.00,weatherlink.com 1.10,2013-11-27 18:45:00,
2013-11-27 11:00:00,48.9,29.0,30.07,East,85,8.0,14.0,46,0.00,,,0.00,weatherlink.com 1.10,2013-11-27 19:00:00,
2013-11-27 11:15:00,49.8,28.0,30.06,NE,39,5.0,13.0,44,0.00,,,0.00,weatherlink.com 1.10,2013-11-27 19:15:00,
2013-11-27 11:30:00,51.7,28.0,30.05,ENE,71,7.0,15.0,41,0.00,,,0.00,weatherlink.com 1.10,2013-11-27 19:30:00,
2013-11-27 11:45:00,52.0,28.0,30.05,ENE,78,7.0,13.0,40,0.00,,,0.00,weatherlink.com 1.10,2013-11-27 19:45:00,
2013-11-27 12:00:00,52.0,28.0,30.05,ENE,69,7.0,12.0,40,0.00,,,0.00,weatherlink.com 1.10,2013-11-27 20:00:00,
2013-11-27 12:15:00,51.8,29.0,30.04,ENE,77,4.0,13.0,41,0.00,,,0.00,weatherlink.com 1.10,2013-11-27 20:15:00,
2013-11-27 12:30:00,52.6,27.0,30.03,NE,51,7.0,11.0,38,0.00,,,0.00,weatherlink.com 1.10,2013-11-27 20:30:00,
2013-11-27 12:45:00,51.1,27.0,30.02,East,101,8.0,12.0,39,0.00,,,0.00,weatherlink.com 1.10,2013-11-27 20:45:00,
2013-11-27 13:00:00,52.3,28.0,30.02,East,86,7.0,12.0,40,0.00,,,0.00,weatherlink.com 1.10,2013-11-27 21:00:00,
2013-11-27 13:16:00,53.0,28.0,30.01,East,79,13.0,13.0,38,0.00,,,0.00,weatherlink.com 1.10,2013-11-27 21:16:00,
2013-11-27 13:31:00,52.4,29.0,30.00,ENE,65,8.0,15.0,41,0.00,,,0.00,weatherlink.com 1.10,2013-11-27 21:31:00,
2013-11-27 13:46:00,52.1,29.0,30.00,East,82,5.0,11.0,41,0.00,,,0.00,weatherlink.com 1.10,2013-11-27 21:46:00,
2013-11-27 14:01:00,52.2,28.0,30.00,ENE,74,5.0,10.0,40,0.00,,,0.00,weatherlink.com 1.10,2013-11-27 22:01:00,
2013-11-27 14:16:00,50.9,28.0,30.00,East,94,6.0,11.0,42,0.00,,,0.00,weatherlink.com 1.10,2013-11-27 22:16:00,
2013-11-27 14:31:00,50.7,28.0,30.00,East,97,3.0,11.0,42,0.00,,,0.00,weatherlink.com 1.10,2013-11-27 22:31:00,
2013-11-27 14:46:00,51.3,26.0,30.00,East,98,3.0,10.0,38,0.00,,,0.00,weatherlink.com 1.10,2013-11-27 22:46:00,
2013-11-27 15:01:00,52.0,27.0,30.00,NE,53,5.0,10.0,38,0.00,,,0.00,weatherlink.com 1.10,2013-11-27 23:01:00,
2013-11-27 15:16:00,50.2,27.0,30.00,ENE,74,5.0,10.0,40,0.00,,,0.00,weatherlink.com 1.10,2013-11-27 23:16:00,
2013-11-27 15:31:00,49.4,26.0,30.00,East,92,2.0,10.0,40,0.00,,,0.00,weatherlink.com 1.10,2013-11-27 23:31:00,
2013-11-27 15:46:00,49.1,25.0,30.00,ENE,72,4.0,10.0,39,0.00,,,0.00,weatherlink.com 1.10,2013-11-27 23:46:00,
2013-11-27 16:01:00,48.8,25.0,30.01,East,90,3.0,5.0,40,0.00,,,0.00,weatherlink.com 1.10,2013-11-28 00:01:00,
2013-11-27 16:16:00,48.5,25.0,30.01,NE,49,2.0,3.0,40,0.00,,,0.00,weatherlink.com 1.10,2013-11-28 00:16:00,
2013-11-27 16:31:00,45.1,26.0,30.01,NE,37,1.0,4.0,48,0.00,,,0.00,weatherlink.com 1.10,2013-11-28 00:31:00,
2013-11-27 16:46:00,41.5,27.0,30.01,NNW,333,5.0,5.0,56,0.00,,,0.00,weatherlink.com 1.10,2013-11-28 00:46:00,
2013-11-27 17:01:00,39.2,27.0,30.01,NNW,338,6.0,7.0,63,0.00,,,0.00,weatherlink.com 1.10,2013-11-28 01:01:00,
2013-11-27 17:16:00,38.2,28.0,30.01,NNW,341,4.0,6.0,66,0.00,,,0.00,weatherlink.com 1.10,2013-11-28 01:16:00,
2013-11-27 17:31:00,37.1,27.0,30.01,NNE,20,3.0,6.0,68,0.00,,,0.00,weatherlink.com 1.10,2013-11-28 01:31:00,
2013-11-27 17:46:00,36.6,28.0,30.01,NNE,28,3.0,6.0,70,0.00,,,0.00,weatherlink.com 1.10,2013-11-28 01:46:00,
2013-11-27 18:01:00,36.9,26.0,30.01,NNE,28,2.0,6.0,65,0.00,,,0.00,weatherlink.com 1.10,2013-11-28 02:01:00,
2013-11-27 18:16:00,37.6,28.0,30.02,NE,46,3.0,8.0,68,0.00,,,0.00,weatherlink.com 1.10,2013-11-28 02:16:00,
2013-11-27 18:31:00,38.1,27.0,30.02,NNE,24,5.0,9.0,65,0.00,,,0.00,weatherlink.com 1.10,2013-11-28 02:31:00,
2013-11-27 18:46:00,37.8,28.0,30.02,North,355,5.0,11.0,68,0.00,,,0.00,weatherlink.com 1.10,2013-11-28 02:46:00,
2013-11-27 19:01:00,37.8,27.0,30.02,NNE,17,5.0,10.0,64,0.00,,,0.00,weatherlink.com 1.10,2013-11-28 03:01:00,
2013-11-27 19:16:00,37.4,25.0,30.02,North,11,5.0,8.0,62,0.00,,,0.00,weatherlink.com 1.10,2013-11-28 03:16:00,
2013-11-27 19:31:00,37.0,24.0,30.02,NE,39,3.0,7.0,60,0.00,,,0.00,weatherlink.com 1.10,2013-11-28 03:31:00,
2013-11-27 19:46:00,37.0,25.0,30.03,NNE,31,5.0,7.0,61,0.00,,,0.00,weatherlink.com 1.10,2013-11-28 03:46:00,
2013-11-27 20:01:00,37.0,24.0,30.03,ENE,71,4.0,9.0,59,0.00,,,0.00,weatherlink.com 1.10,2013-11-28 04:01:00,
2013-11-27 20:16:00,37.6,24.0,30.03,ENE,69,4.0,9.0,58,0.00,,,0.00,weatherlink.com 1.10,2013-11-28 04:16:00,
2013-11-27 20:31:00,37.9,25.0,30.03,ENE,75,4.0,10.0,59,0.00,,,0.00,weatherlink.com 1.10,2013-11-28 04:31:00,
2013-11-27 20:46:00,37.7,25.0,30.04,ENE,73,3.0,11.0,61,0.00,,,0.00,weatherlink.com 1.10,2013-11-28 04:46:00,
2013-11-27 21:02:00,37.4,25.0,30.04,NNE,19,0.0,5.0,62,0.00,,,0.00,weatherlink.com 1.10,2013-11-28 05:02:00,
2013-11-27 21:17:00,37.8,27.0,30.04,East,82,6.0,13.0,65,0.00,,,0.00,weatherlink.com 1.10,2013-11-28 05:17:00,
2013-11-27 21:32:00,37.5,27.0,30.03,East,91,8.0,11.0,67,0.00,,,0.00,weatherlink.com 1.10,2013-11-28 05:32:00,
2013-11-27 21:47:00,38.3,27.0,30.03,East,79,5.0,16.0,65,0.00,,,0.00,weatherlink.com 1.10,2013-11-28 05:47:00,
2013-11-27 22:02:00,38.2,28.0,30.02,East,87,10.0,15.0,66,0.00,,,0.00,weatherlink.com 1.10,2013-11-28 06:02:00,
2013-11-27 22:17:00,38.1,28.0,30.02,ENE,73,2.0,13.0,66,0.00,,,0.00,weatherlink.com 1.10,2013-11-28 06:17:00,
2013-11-27 22:32:00,37.6,28.0,30.02,NE,53,6.0,10.0,68,0.00,,,0.00,weatherlink.com 1.10,2013-11-28 06:32:00,
2013-11-27 22:47:00,37.8,28.0,30.01,ENE,78,7.0,14.0,67,0.00,,,0.00,weatherlink.com 1.10,2013-11-28 06:47:00,
2013-11-27 23:02:00,37.5,27.0,30.01,ENE,77,0.0,8.0,67,0.00,,,0.00,weatherlink.com 1.10,2013-11-28 07:02:00,
2013-11-27 23:17:00,36.8,27.0,30.01,East,96,5.0,8.0,69,0.00,,,0.00,weatherlink.com 1.10,2013-11-28 07:17:00,
2013-11-27 23:32:00,37.3,27.0,30.01,ESE,111,2.0,10.0,67,0.00,,,0.00,weatherlink.com 1.10,2013-11-28 07:32:00,
2013-11-27 23:47:00,37.5,27.0,30.01,ESE,103,2.0,9.0,66,0.00,,,0.00,weatherlink.com 1.10,2013-11-28 07:47:00,